createdAt,value
2024-03-02T00:02:42.517Z,11.65
2024-03-02T00:06:03.893Z,11.60
2024-03-02T00:09:29.980Z,11.58
2024-03-02T00:12:47.001Z,11.58
2024-03-02T00:16:12.420Z,11.52
2024-03-02T00:19:29.228Z,11.43
2024-03-02T00:22:39.713Z,11.33
2024-03-02T00:26:22.674Z,11.17
2024-03-02T00:29:43.951Z,11.05
2024-03-02T00:32:58.344Z,11.03
2024-03-02T00:36:13.844Z,11.05
2024-03-02T00:39:23.498Z,11.09
2024-03-02T00:42:27.476Z,11.15
2024-03-02T00:45:42.489Z,11.19
2024-03-02T00:49:01.534Z,11.27
2024-03-02T00:52:13.428Z,11.26
2024-03-02T00:55:37.579Z,11.11
2024-03-02T00:59:09.332Z,11.06
2024-03-02T01:02:31.325Z,11.08
2024-03-02T01:05:54.227Z,11.22
2024-03-02T01:09:07.546Z,11.26
2024-03-02T01:12:30.587Z,11.30
2024-03-02T01:15:57.238Z,11.32
2024-03-02T01:19:06.409Z,11.33
2024-03-02T01:22:16.209Z,11.34
2024-03-02T01:25:24.181Z,11.42
2024-03-02T01:28:50.372Z,11.34
2024-03-02T01:32:01.988Z,11.32
2024-03-02T01:35:09.090Z,11.20
2024-03-02T01:38:31.794Z,11.21
2024-03-02T01:41:55.349Z,11.11
2024-03-02T01:45:16.443Z,11.08
2024-03-02T01:48:42.666Z,11.12
2024-03-02T01:52:05.189Z,11.16
2024-03-02T01:55:16.890Z,11.21
2024-03-02T01:58:41.690Z,11.12
2024-03-02T02:02:06.167Z,10.95
2024-03-02T02:05:13.322Z,11.06
2024-03-02T02:08:28.086Z,11.08
2024-03-02T02:11:32.359Z,11.12
2024-03-02T02:14:56.528Z,11.18
2024-03-02T02:18:18.474Z,11.10
2024-03-02T02:21:49.874Z,11.04
2024-03-02T02:24:53.356Z,11.00
2024-03-02T02:27:57.797Z,10.95
2024-03-02T02:31:21.152Z,11.14
2024-03-02T02:34:53.748Z,11.18
2024-03-02T02:38:16.345Z,11.14
2024-03-02T02:41:25.585Z,11.19
2024-03-02T02:44:46.863Z,11.10
2024-03-02T02:48:10.017Z,11.01
2024-03-02T02:51:21.382Z,11.02
2024-03-02T02:54:46.317Z,10.68
2024-03-02T02:58:03.805Z,10.71
2024-03-02T03:01:20.785Z,10.73
2024-03-02T03:04:37.210Z,10.68
2024-03-02T03:07:53.971Z,10.64
2024-03-02T03:10:58.535Z,10.71
2024-03-02T03:14:06.439Z,10.64
2024-03-02T03:17:14.498Z,10.59
2024-03-02T03:20:31.330Z,10.46
2024-03-02T03:23:40.425Z,10.34
2024-03-02T03:26:47.498Z,10.55
2024-03-02T03:30:08.078Z,10.67
2024-03-02T03:33:29.885Z,10.69
2024-03-02T03:36:51.325Z,10.52
2024-03-02T03:40:21.979Z,10.57
2024-03-02T03:43:37.055Z,10.52
2024-03-02T03:47:01.960Z,10.69
2024-03-02T03:50:17.642Z,10.77
2024-03-02T03:53:38.574Z,10.77
2024-03-02T03:57:03.372Z,10.78
2024-03-02T04:00:28.078Z,10.76
2024-03-02T04:03:40.396Z,10.79
2024-03-02T04:07:04.050Z,10.81
2024-03-02T04:10:27.124Z,10.87
2024-03-02T04:13:49.295Z,10.60
2024-03-02T04:16:53.409Z,10.32
2024-03-02T04:19:57.601Z,10.15
2024-03-02T04:23:20.932Z,10.20
2024-03-02T04:26:38.324Z,10.07
2024-03-02T04:29:42.528Z,10.21
2024-03-02T04:33:06.051Z,10.14
2024-03-02T04:36:39.991Z,10.02
2024-03-02T04:40:01.754Z,10.05
2024-03-02T04:43:23.658Z,9.93
2024-03-02T04:46:44.527Z,10.00
2024-03-02T04:49:50.002Z,9.96
2024-03-02T04:52:57.788Z,9.97
2024-03-02T04:56:24.187Z,9.88
2024-03-02T04:59:46.817Z,9.90
2024-03-02T05:03:20.604Z,9.81
2024-03-02T05:06:45.473Z,9.96
2024-03-02T05:10:10.899Z,9.84
2024-03-02T05:13:22.439Z,10.03
2024-03-02T05:16:48.591Z,9.97
2024-03-02T05:20:10.898Z,10.06
2024-03-02T05:23:37.611Z,10.24
2024-03-02T05:26:48.825Z,10.16
2024-03-02T05:30:11.570Z,9.97
2024-03-02T05:33:35.585Z,9.94
2024-03-02T05:36:57.218Z,10.03
2024-03-02T05:40:17.651Z,10.14
2024-03-02T05:43:34.257Z,10.54
2024-03-02T05:46:58.838Z,10.60
2024-03-02T05:50:23.928Z,10.63
2024-03-02T05:53:46.536Z,10.60
2024-03-02T05:57:22.895Z,10.25
2024-03-02T06:00:32.811Z,10.50
2024-03-02T06:03:53.635Z,10.58
2024-03-02T06:07:10.012Z,10.69
2024-03-02T06:10:33.767Z,10.28
2024-03-02T06:13:55.605Z,10.20
2024-03-02T06:17:19.798Z,10.54
2024-03-02T06:20:41.841Z,10.61
2024-03-02T06:24:03.676Z,10.70
2024-03-02T06:27:25.755Z,10.84
2024-03-02T06:30:46.765Z,10.92
2024-03-02T06:34:05.783Z,10.77
2024-03-02T06:37:31.625Z,10.81
2024-03-02T06:40:54.126Z,10.99
2024-03-02T06:44:06.978Z,10.82
2024-03-02T06:47:30.818Z,10.75
2024-03-02T06:50:57.673Z,10.57
2024-03-02T06:54:25.302Z,10.75
2024-03-02T06:57:29.197Z,10.89
2024-03-02T07:00:33.263Z,10.92
2024-03-02T07:03:38.187Z,10.92
2024-03-02T07:06:43.211Z,10.97
2024-03-02T07:09:47.993Z,10.99
2024-03-02T07:12:59.598Z,10.94
2024-03-02T07:16:29.331Z,11.03
2024-03-02T07:19:36.049Z,10.83
2024-03-02T07:22:46.632Z,11.06
2024-03-02T07:28:58.576Z,11.11
2024-03-02T07:32:10.437Z,11.02
2024-03-02T07:35:21.827Z,11.14
2024-03-02T07:38:33.713Z,11.17
2024-03-02T07:41:38.022Z,11.11
2024-03-02T07:44:56.749Z,11.23
2024-03-02T07:48:08.224Z,11.04
2024-03-02T07:51:31.498Z,10.96
2024-03-02T07:54:55.697Z,11.15
2024-03-02T07:58:19.231Z,11.28
2024-03-02T08:01:23.731Z,11.09
2024-03-02T08:04:39.462Z,11.23
2024-03-02T08:08:19.551Z,10.66
2024-03-02T08:11:43.572Z,10.59
2024-03-02T08:15:12.287Z,10.57
2024-03-02T08:18:16.084Z,10.49
2024-03-02T08:21:20.897Z,10.45
2024-03-02T08:24:32.438Z,10.96
2024-03-02T08:27:50.423Z,10.81
2024-03-02T08:31:11.535Z,10.83
2024-03-02T08:34:35.797Z,11.17
2024-03-02T08:37:45.831Z,10.82
2024-03-02T08:40:54.133Z,10.66
2024-03-02T08:44:05.267Z,10.47
2024-03-02T08:47:19.147Z,10.34
2024-03-02T08:50:36.480Z,10.43
2024-03-02T08:53:58.362Z,10.13
2024-03-02T08:57:09.177Z,10.44
2024-03-02T09:00:19.088Z,10.53
2024-03-02T09:03:26.722Z,10.65
2024-03-02T09:06:41.252Z,10.88
2024-03-02T09:10:00.997Z,10.91
2024-03-02T09:13:20.126Z,11.10
2024-03-02T09:16:41.903Z,11.32
2024-03-02T09:20:02.832Z,11.16
2024-03-02T09:23:25.962Z,11.05
2024-03-02T09:26:50.822Z,10.54
2024-03-02T09:30:12.717Z,10.40
2024-03-02T09:33:29.412Z,10.86
2024-03-02T09:36:46.229Z,10.61
2024-03-02T09:40:18.097Z,10.70
2024-03-02T09:43:38.750Z,10.59
2024-03-02T09:46:58.015Z,10.67
2024-03-02T09:50:08.946Z,10.65
2024-03-02T09:53:33.216Z,10.74
2024-03-02T09:56:43.827Z,10.60
2024-03-02T09:59:48.928Z,10.74
2024-03-02T10:03:06.303Z,10.65
2024-03-02T10:06:28.459Z,10.60
2024-03-02T10:09:39.793Z,10.65
2024-03-02T10:12:53.725Z,10.41
2024-03-02T10:16:12.954Z,10.77
2024-03-02T10:19:28.463Z,10.43
2024-03-02T10:22:44.495Z,10.68
2024-03-02T10:25:57.698Z,10.43
2024-03-02T10:29:03.939Z,10.35
2024-03-02T10:32:25.051Z,10.63
2024-03-02T10:35:44.086Z,10.77
2024-03-02T10:39:06.272Z,10.88
2024-03-02T10:42:10.864Z,10.77
2024-03-02T10:45:28.555Z,10.85
2024-03-02T10:48:58.106Z,10.85
2024-03-02T10:52:35.079Z,10.70
2024-03-02T10:55:53.290Z,10.82
2024-03-02T10:59:19.886Z,10.97
2024-03-02T11:02:29.196Z,11.06
2024-03-02T11:06:02.282Z,11.16
2024-03-02T11:09:25.943Z,11.30
2024-03-02T11:13:04.058Z,10.82
2024-03-02T11:16:37.388Z,11.21
2024-03-02T11:19:42.516Z,11.24
2024-03-02T11:22:56.265Z,11.00
2024-03-02T11:26:25.916Z,11.14
2024-03-02T11:29:42.170Z,11.32
2024-03-02T11:33:01.436Z,11.28
2024-03-02T11:36:20.687Z,11.19
2024-03-02T11:39:39.957Z,11.69
2024-03-02T11:43:05.883Z,11.35
2024-03-02T11:46:27.553Z,11.07
2024-03-02T11:49:47.987Z,11.50
2024-03-02T11:52:51.120Z,11.19
2024-03-02T11:55:57.778Z,11.18
2024-03-02T11:59:05.346Z,11.19
2024-03-02T12:02:34.551Z,11.02
2024-03-02T12:05:50.690Z,11.13
2024-03-02T12:09:13.787Z,11.23
2024-03-02T12:12:34.589Z,11.27
2024-03-02T12:15:44.619Z,11.16
2024-03-02T12:19:07.970Z,11.29
2024-03-02T12:22:41.624Z,11.28
2024-03-02T12:26:04.623Z,11.05
2024-03-02T12:29:25.607Z,11.08
2024-03-02T12:32:48.746Z,11.10
2024-03-02T12:36:06.937Z,11.27
2024-03-02T12:39:30.684Z,11.22
2024-03-02T12:42:48.098Z,11.17
2024-03-02T12:46:09.796Z,11.27
2024-03-02T12:49:39.578Z,11.13
2024-03-02T12:53:00.857Z,10.90
2024-03-02T12:56:23.627Z,10.89
2024-03-02T12:59:45.572Z,10.98
2024-03-02T13:03:04.586Z,11.15
2024-03-02T13:06:26.789Z,10.98
2024-03-02T13:09:48.575Z,10.97
2024-03-02T13:12:58.692Z,10.72
2024-03-02T13:16:21.207Z,10.70
2024-03-02T13:20:03.960Z,10.45
2024-03-02T13:23:17.682Z,10.29
2024-03-02T13:26:39.634Z,10.40
2024-03-02T13:29:57.681Z,10.51
2024-03-02T13:33:25.110Z,10.55
2024-03-02T13:36:45.981Z,10.44
2024-03-02T13:40:06.649Z,10.27
2024-03-02T13:43:29.672Z,10.37
2024-03-02T13:46:50.859Z,10.32
2024-03-02T13:50:11.770Z,10.25
2024-03-02T13:53:32.612Z,10.44
2024-03-02T13:56:58.849Z,10.53
2024-03-02T14:00:18.979Z,10.62
2024-03-02T14:03:39.864Z,10.71
2024-03-02T14:06:54.789Z,10.62
2024-03-02T14:10:22.628Z,10.37
2024-03-02T14:13:30.597Z,10.18
2024-03-02T14:16:35.506Z,10.23
2024-03-02T14:19:55.187Z,10.10
2024-03-02T14:23:11.874Z,10.23
2024-03-02T14:26:34.624Z,10.29
2024-03-02T14:29:49.547Z,10.25
2024-03-02T14:33:07.653Z,10.37
2024-03-02T14:36:31.355Z,10.34
2024-03-02T14:39:53.280Z,10.20
2024-03-02T14:43:07.221Z,10.22
2024-03-02T14:46:37.704Z,10.24
2024-03-02T14:49:55.642Z,10.29
2024-03-02T14:53:15.723Z,10.44
2024-03-02T14:56:38.264Z,10.35
2024-03-02T15:00:02.538Z,10.12
2024-03-02T15:03:13.251Z,10.31
2024-03-02T15:06:23.998Z,10.33
2024-03-02T15:09:29.437Z,10.25
2024-03-02T15:12:41.126Z,10.16
2024-03-02T15:15:54.915Z,10.18
2024-03-02T15:19:11.550Z,10.38
2024-03-02T15:22:49.495Z,10.16
2024-03-02T15:26:15.918Z,10.13
2024-03-02T15:29:19.802Z,10.05
2024-03-02T15:32:23.293Z,10.24
2024-03-02T15:35:28.619Z,10.16
2024-03-02T15:38:50.360Z,10.25
2024-03-02T15:42:06.695Z,10.31
2024-03-02T15:45:20.143Z,10.26
2024-03-02T15:48:29.376Z,10.39
2024-03-02T15:51:50.383Z,10.34
2024-03-02T15:55:00.610Z,10.43
2024-03-02T15:58:21.653Z,10.40
2024-03-02T16:01:36.661Z,10.54
2024-03-02T16:04:43.748Z,10.42
2024-03-02T16:07:48.598Z,10.35
2024-03-02T16:10:54.640Z,10.30
2024-03-02T16:14:11.423Z,10.24
2024-03-02T16:17:26.712Z,10.28
2024-03-02T16:20:32.435Z,10.32
2024-03-02T16:23:41.109Z,10.43
2024-03-02T16:26:48.826Z,10.24
2024-03-02T16:30:00.423Z,10.29
2024-03-02T16:33:11.988Z,10.24
2024-03-02T16:36:29.954Z,10.34
2024-03-02T16:39:50.180Z,10.56
2024-03-02T16:43:09.339Z,10.34
2024-03-02T16:46:29.282Z,10.41
2024-03-02T16:49:58.256Z,10.39
2024-03-02T16:53:17.290Z,10.43
2024-03-02T16:56:22.987Z,10.12
2024-03-02T16:59:40.228Z,10.18
2024-03-02T17:02:48.086Z,10.36
2024-03-02T17:05:59.066Z,10.35
2024-03-02T17:09:17.605Z,10.52
2024-03-02T17:12:42.021Z,10.45
2024-03-02T17:15:52.832Z,10.51
2024-03-02T17:19:13.421Z,10.49
2024-03-02T17:22:19.482Z,10.53
2024-03-02T17:25:34.631Z,10.52
2024-03-02T17:28:43.280Z,10.32
2024-03-02T17:31:54.941Z,10.29
2024-03-02T17:35:15.664Z,10.37
2024-03-02T17:38:21.223Z,10.24
2024-03-02T17:41:37.396Z,10.46
2024-03-02T17:44:48.585Z,10.58
2024-03-02T17:47:54.036Z,10.53
2024-03-02T17:51:14.269Z,10.40
2024-03-02T17:54:37.705Z,10.33
2024-03-02T17:57:59.733Z,10.39
2024-03-02T18:01:20.411Z,10.32
2024-03-02T18:04:45.256Z,10.33
2024-03-02T18:07:53.069Z,10.38
2024-03-02T18:11:19.609Z,10.28
2024-03-02T18:14:46.346Z,10.18
2024-03-02T18:18:14.858Z,10.29
2024-03-02T18:21:42.152Z,10.41
2024-03-02T18:24:53.741Z,10.43
2024-03-02T18:28:12.773Z,10.44
2024-03-02T18:31:38.311Z,10.43
2024-03-02T18:35:00.707Z,10.36
2024-03-02T18:38:20.477Z,10.65
2024-03-02T18:41:44.593Z,10.57
2024-03-02T18:44:54.466Z,10.57
2024-03-02T18:48:14.172Z,10.79
2024-03-02T18:51:43.950Z,10.93
2024-03-02T18:55:11.734Z,10.71
2024-03-02T18:58:34.399Z,10.86
2024-03-02T19:01:44.751Z,10.65
2024-03-02T19:05:07.901Z,10.48
2024-03-02T19:08:43.647Z,10.48
2024-03-02T19:12:04.883Z,10.44
2024-03-02T19:15:31.088Z,10.50
2024-03-02T19:18:48.776Z,10.43
2024-03-02T19:22:08.419Z,10.56
2024-03-02T19:25:28.907Z,10.66
2024-03-02T19:28:51.597Z,10.44
2024-03-02T19:32:21.334Z,10.45
2024-03-02T19:35:36.498Z,10.38
2024-03-02T19:38:40.780Z,10.40
2024-03-02T19:42:00.560Z,10.43
2024-03-02T19:45:37.826Z,10.44
2024-03-02T19:49:05.834Z,10.36
2024-03-02T19:52:18.065Z,10.33
2024-03-02T19:55:42.848Z,10.33
2024-03-02T19:59:15.808Z,10.51
2024-03-02T20:02:37.760Z,10.53
2024-03-02T20:05:53.967Z,10.53
2024-03-02T20:09:16.341Z,10.59
2024-03-02T20:12:20.868Z,10.65
2024-03-02T20:15:44.667Z,10.65
2024-03-02T20:19:22.633Z,10.52
2024-03-02T20:22:43.840Z,10.56
2024-03-02T20:26:03.111Z,10.53
2024-03-02T20:29:24.862Z,10.61
2024-03-02T20:32:32.375Z,10.64
2024-03-02T20:35:54.355Z,10.70
2024-03-02T20:39:17.210Z,10.73
2024-03-02T20:42:28.521Z,10.58
2024-03-02T20:45:46.791Z,10.58
2024-03-02T20:49:14.134Z,10.62
2024-03-02T20:52:27.563Z,10.77
2024-03-02T20:55:51.088Z,10.64
2024-03-02T20:59:11.852Z,10.86
2024-03-02T21:02:29.448Z,10.83
2024-03-02T21:05:46.819Z,10.86
2024-03-02T21:09:22.151Z,10.89
2024-03-02T21:12:52.360Z,10.86
2024-03-02T21:16:11.469Z,10.87
2024-03-02T21:19:23.795Z,10.79
2024-03-02T21:22:30.875Z,10.79
2024-03-02T21:25:56.977Z,10.83
2024-03-02T21:29:28.982Z,10.83
2024-03-02T21:32:41.325Z,10.79
2024-03-02T21:35:56.749Z,10.96
2024-03-02T21:39:05.899Z,10.95
2024-03-02T21:42:14.275Z,10.93
2024-03-02T21:45:40.760Z,10.85
2024-03-02T21:49:02.748Z,10.88
2024-03-02T21:52:17.469Z,10.94
2024-03-02T21:55:40.280Z,10.90
2024-03-02T22:02:25.748Z,11.03
2024-03-02T22:05:47.358Z,11.01
2024-03-02T22:08:53.202Z,11.02
2024-03-02T22:12:27.374Z,11.05
2024-03-02T22:15:41.695Z,11.21
2024-03-02T22:19:13.564Z,11.37
2024-03-02T22:22:42.445Z,11.20
2024-03-02T22:25:54.227Z,11.29
2024-03-02T22:28:58.285Z,11.34
2024-03-02T22:32:25.540Z,11.15
2024-03-02T22:35:51.974Z,11.00
2024-03-02T22:39:14.034Z,10.89
2024-03-02T22:42:42.098Z,11.02
2024-03-02T22:45:53.256Z,11.12
2024-03-02T22:48:56.743Z,11.39
2024-03-02T22:52:02.786Z,11.32
2024-03-02T22:55:27.455Z,11.32
2024-03-02T22:58:44.944Z,11.38
2024-03-02T23:02:25.321Z,11.36
2024-03-02T23:05:50.737Z,11.34
2024-03-02T23:08:57.206Z,11.38
2024-03-02T23:12:14.139Z,11.35
2024-03-02T23:15:31.395Z,11.35
2024-03-02T23:18:51.232Z,11.38
2024-03-02T23:21:58.973Z,11.26
2024-03-02T23:25:08.193Z,11.28
2024-03-02T23:28:30.942Z,11.16
2024-03-02T23:31:54.542Z,11.25
2024-03-02T23:35:10.763Z,11.30
2024-03-02T23:38:34.150Z,11.26
2024-03-02T23:41:52.505Z,11.10
2024-03-02T23:45:15.106Z,10.95
2024-03-02T23:48:38.104Z,10.61
2024-03-02T23:51:52.615Z,10.44
2024-03-02T23:55:10.124Z,10.29
2024-03-02T23:58:30.933Z,10.30
